This is the latest recevied weather packets stored in our database for station/object HB9TJM-8. If no packets are shown the sender has not sent any weather packets the latest 10 day(s).
| Time | Temp. | Humidity | Pressure | Rain* | Wind** | Luminosity | Snow |
|---|---|---|---|---|---|---|---|
| 1777388425 | 13.89° C | 64% | 1016 hPa | 0.51 mm | - | 144 W/m² | - |
| 1777388425 | 13.89° C | 64% | 1016 hPa | 0.51 mm | - | 144 W/m² | - |
| 1777388118 | 14.44° C | 64% | 1015.6 hPa | 0.51 mm | - | 198 W/m² | - |
| 1777388118 | 14.44° C | 64% | 1015.6 hPa | 0.51 mm | - | 198 W/m² | - |
| 1777387810 | 14.44° C | 64% | 1015.6 hPa | 0.51 mm | - | 208 W/m² | - |
| 1777387502 | 13.89° C | 64% | 1016.1 hPa | 0.25 mm | - | 219 W/m² | - |
| 1777387502 | 13.89° C | 64% | 1016.1 hPa | 0.25 mm | - | 219 W/m² | - |
| 1777387195 | 13.89° C | 62% | 1015.9 hPa | 0.25 mm | - | 190 W/m² | - |
| 1777386888 | 13.89° C | 64% | 1015.8 hPa | 0.25 mm | - | 182 W/m² | - |
| 1777386581 | 13.89° C | 63% | 1016.1 hPa | 0.25 mm | - | 144 W/m² | - |
| 1777386581 | 13.89° C | 63% | 1016.1 hPa | 0.25 mm | - | 144 W/m² | - |
| 1777386273 | 13.89° C | 64% | 1015.6 hPa | 0.25 mm | - | 156 W/m² | - |
| 1777386273 | 13.89° C | 64% | 1015.6 hPa | 0.25 mm | - | 156 W/m² | - |
| 1777385966 | 13.89° C | 67% | 1015.9 hPa | 0.25 mm | - | 194 W/m² | - |
| 1777385965 | 13.89° C | 67% | 1015.9 hPa | 0.25 mm | - | 194 W/m² | - |
| 1777385658 | 13.89° C | 63% | 1016.2 hPa | 0.25 mm | - | 164 W/m² | - |
| 1777385658 | 13.89° C | 63% | 1016.2 hPa | 0.25 mm | - | 164 W/m² | - |
| 1777385351 | 13.89° C | 65% | 1016.1 hPa | 0.25 mm | - | 181 W/m² | - |
| 1777385351 | 13.89° C | 65% | 1016.1 hPa | 0.25 mm | - | 181 W/m² | - |
| 1777385044 | 13.89° C | 62% | 1015.8 hPa | 0.25 mm | - | 181 W/m² | - |
| 1777384737 | 13.89° C | 64% | 1016.3 hPa | 0.25 mm | - | 180 W/m² | - |
| 1777384430 | 13.89° C | 62% | 1016.4 hPa | 0.25 mm | - | 187 W/m² | - |
| 1777384122 | 13.89° C | 62% | 1016.2 hPa | 0.25 mm | - | 179 W/m² | - |
| 1777384122 | 13.89° C | 62% | 1016.2 hPa | 0.25 mm | - | 179 W/m² | - |
| 1777383815 | 13.89° C | 62% | 1016.2 hPa | 0.25 mm | - | 177 W/m² | - |
* Rain latest hour (hover to see other rain measurements)
** Current wind speed in m/s (hover to see current wind gust speed)